Time,TemperatureF,DewpointF,PressureIn,WindDirection,WindDirectionDegrees,WindSpeedMPH,WindSpeedGustMPH,Humidity,HourlyPrecipIn,Conditions,Clouds,dailyrainin,SoftwareType,DateUTC
2013-09-05 08:42:00,68.0,65.0,-100.00,SW,215,4.0,9.0,89,0.00,,,-99.99,,2013-09-05 13:42:00,
2013-09-05 09:22:00,74.0,66.0,-100.00,WSW,240,11.0,15.0,76,0.00,,,-99.99,,2013-09-05 14:22:00,
2013-09-05 09:42:00,76.0,67.0,-100.00,SW,215,6.0,12.0,74,0.00,,,-99.99,,2013-09-05 14:42:00,
2013-09-05 10:22:00,78.0,66.0,-100.00,SSW,195,11.0,14.0,65,0.00,,,-99.99,,2013-09-05 15:22:00,
2013-09-05 10:44:00,79.0,65.0,-100.00,South,180,9.0,13.0,62,0.00,,,-99.99,,2013-09-05 15:44:00,
2013-09-05 11:24:00,82.0,66.0,-100.00,South,190,9.0,13.0,58,0.00,,,-99.99,,2013-09-05 16:24:00,
2013-09-05 11:43:00,83.0,66.0,-100.00,SSW,210,7.0,12.0,57,0.00,,,-99.99,,2013-09-05 16:43:00,
2013-09-05 12:23:00,86.0,67.0,-100.00,SSW,195,6.0,8.0,53,0.00,,,-99.99,,2013-09-05 17:23:00,
2013-09-05 12:43:00,85.0,65.0,-100.00,SSW,205,7.0,11.0,51,0.00,,,-99.99,,2013-09-05 17:43:00,
2013-09-05 13:21:00,85.0,65.0,-100.00,South,180,9.0,15.0,51,0.00,,,-99.99,,2013-09-05 18:21:00,
2013-09-05 13:42:00,85.0,65.0,-100.00,SSW,195,10.0,14.0,50,0.00,,,-99.99,,2013-09-05 18:42:00,
2013-09-05 14:21:00,85.0,65.0,-100.00,SW,230,12.0,15.0,50,0.00,,,-99.99,,2013-09-05 19:21:00,
2013-09-05 14:42:00,84.0,64.0,-100.00,SSW,200,12.0,16.0,51,0.00,,,-99.99,,2013-09-05 19:42:00,
2013-09-05 15:22:00,82.0,63.0,-100.00,SSW,210,8.0,14.0,53,0.00,,,-99.99,,2013-09-05 20:22:00,
2013-09-05 15:42:00,84.0,64.0,-100.00,SSW,200,11.0,15.0,50,0.00,,,-99.99,,2013-09-05 20:42:00,
2013-09-05 16:21:00,85.0,63.0,-100.00,South,190,12.0,15.0,47,0.00,,,-99.99,,2013-09-05 21:21:00,
2013-09-05 17:24:00,81.0,60.0,-100.00,SSW,200,10.0,14.0,49,0.00,,,-99.99,,2013-09-05 22:24:00,
2013-09-05 17:43:00,80.0,60.0,-100.00,SSW,210,9.0,12.0,51,0.00,,,-99.99,,2013-09-05 22:43:00,
2013-09-05 19:22:00,76.0,64.0,-100.00,SSW,210,4.0,6.0,66,0.00,,,-99.99,,2013-09-06 00:22:00,
2013-09-05 19:42:00,75.0,64.0,-100.00,SSW,210,4.0,5.0,69,0.00,,,-99.99,,2013-09-06 00:42:00,
2013-09-05 20:22:00,74.0,64.0,-100.00,South,185,6.0,8.0,72,0.00,,,-99.99,,2013-09-06 01:22:00,